Time;durP1;ratioP1;P1;durP2;ratioP2;P2;SDS_P1;SDS_P2;PMS_P1;PMS_P2;Temp;Humidity;BMP_temperature;BMP_pressure;BME280_temperature;BME280_humidity;BME280_pressure;Samples;Min_cycle;Max_cycle;Signal;HPM_P1;HPM_P2
2023/03/29 00:00:07;;;;;;;3.23;1.30;;;;;;;-1.20;100.00;101380.72;4872993;29;20126;-80
2023/03/29 00:02:37;;;;;;;3.67;1.50;;;;;;;-1.23;100.00;101394.47;4856741;29;20037;-81
2023/03/29 00:05:07;;;;;;;1.80;1.00;;;;;;;-1.27;100.00;101395.16;4856546;29;20133;-81
2023/03/29 00:07:34;;;;;;;3.30;1.47;;;;;;;-1.34;100.00;101390.59;4859330;29;20127;-82
2023/03/29 00:10:03;;;;;;;2.20;1.27;;;;;;;-1.39;100.00;101399.00;4879983;29;20771;-81
2023/03/29 00:12:30;;;;;;;3.50;1.10;;;;;;;-1.41;100.00;101393.75;4858010;29;20051;-81
2023/03/29 00:14:57;;;;;;;2.20;1.40;;;;;;;-1.31;100.00;101382.91;4850776;29;20165;-81
2023/03/29 00:17:23;;;;;;;2.80;1.40;;;;;;;-1.35;100.00;101382.72;4866034;29;20052;-80
2023/03/29 00:19:50;;;;;;;2.53;1.53;;;;;;;-1.42;100.00;101379.03;4883315;29;20057;-81
2023/03/29 00:22:18;;;;;;;1.70;1.30;;;;;;;-1.46;100.00;101372.81;4853355;29;20068;-82
2023/03/29 00:24:47;;;;;;;5.70;1.73;;;;;;;-1.39;100.00;101370.47;4877924;29;20037;-81
2023/03/29 00:27:16;;;;;;;5.17;1.60;;;;;;;-1.34;100.00;101364.66;4838498;29;20049;-80
2023/03/29 00:29:43;;;;;;;2.60;1.40;;;;;;;-1.39;100.00;101365.31;4865096;29;20060;-81
2023/03/29 00:32:10;;;;;;;2.57;1.33;;;;;;;-1.42;100.00;101360.88;4861037;29;20049;-80
2023/03/29 00:34:37;;;;;;;2.73;1.23;;;;;;;-1.46;100.00;101367.66;4866334;29;20045;-80
2023/03/29 00:37:08;;;;;;;5.10;1.70;;;;;;;-1.39;100.00;101365.31;4876139;29;20049;-80
2023/03/29 00:39:35;;;;;;;2.50;1.20;;;;;;;-1.49;100.00;101358.88;4869014;29;20045;-81
2023/03/29 00:42:02;;;;;;;2.23;1.90;;;;;;;-1.44;100.00;101349.56;4848569;29;20113;-80
2023/03/29 00:44:53;;;;;;;2.73;1.70;;;;;;;-1.50;100.00;101354.53;4841012;29;20072;-81
2023/03/29 00:47:25;;;;;;;3.07;1.37;;;;;;;-1.43;100.00;101348.72;4869307;29;20495;-81
2023/03/29 00:49:52;;;;;;;2.10;1.30;;;;;;;-1.61;100.00;101338.53;4878968;29;20034;-80
2023/03/29 00:52:23;;;;;;;2.43;1.77;;;;;;;-1.38;100.00;101330.78;4843772;29;20050;-80
2023/03/29 00:54:52;;;;;;;2.40;1.50;;;;;;;-1.42;100.00;101340.16;4877968;29;20618;-82
2023/03/29 00:57:21;;;;;;;2.40;1.60;;;;;;;-1.59;100.00;101328.25;4868516;29;20630;-79
2023/03/29 00:59:49;;;;;;;3.10;1.40;;;;;;;-1.65;100.00;101326.28;4865277;29;20044;-80
2023/03/29 01:02:20;;;;;;;5.27;1.53;;;;;;;-1.74;100.00;101326.81;4869544;29;20050;-80
2023/03/29 01:04:56;;;;;;;3.70;1.97;;;;;;;-1.75;100.00;101319.00;4868563;29;20045;-81
2023/03/29 01:07:29;;;;;;;2.80;1.50;;;;;;;-1.86;100.00;101315.94;4860545;29;20056;-81
2023/03/29 01:10:18;;;;;;;1.83;1.57;;;;;;;-1.85;100.00;101307.38;4843654;29;20049;-80
2023/03/29 01:12:48;;;;;;;3.23;2.07;;;;;;;-1.75;100.00;101303.44;4866783;29;20033;-82
2023/03/29 01:15:19;;;;;;;1.90;1.63;;;;;;;-1.86;100.00;101310.78;4890131;29;20047;-81
2023/03/29 01:17:49;;;;;;;3.90;2.40;;;;;;;-1.87;100.00;101306.41;4863873;29;20057;-80
2023/03/29 01:20:42;;;;;;;6.03;2.00;;;;;;;-1.96;100.00;101303.47;4843483;29;20056;-82
2023/03/29 01:23:14;;;;;;;3.20;1.50;;;;;;;-1.98;100.00;101303.41;4861530;29;20045;-81
2023/03/29 01:26:09;;;;;;;2.80;1.70;;;;;;;-1.99;100.00;101299.06;4869262;29;20052;-81
2023/03/29 01:28:49;;;;;;;4.15;1.70;;;;;;;-1.94;100.00;101291.44;4862439;29;20045;-81
2023/03/29 01:31:20;;;;;;;3.13;1.70;;;;;;;-1.95;100.00;101289.69;4865144;29;20041;-79
2023/03/29 01:33:51;;;;;;;2.60;1.60;;;;;;;-1.90;100.00;101288.19;4890139;29;20551;-80
2023/03/29 01:36:33;;;;;;;4.87;1.80;;;;;;;-1.87;100.00;101284.81;4865725;29;20415;-82
2023/03/29 01:39:03;;;;;;;3.23;1.50;;;;;;;-1.86;100.00;101279.69;4832918;29;20056;-81
2023/03/29 01:41:42;;;;;;;3.07;1.90;;;;;;;-1.86;100.00;101274.50;4829867;29;20041;-81
2023/03/29 01:44:17;;;;;;;2.67;1.80;;;;;;;-1.89;100.00;101260.56;4858380;29;20037;-82
2023/03/29 01:46:51;;;;;;;4.93;2.73;;;;;;;-1.87;100.00;101269.28;4840464;29;20053;-82
2023/03/29 01:49:25;;;;;;;2.93;1.83;;;;;;;-1.78;100.00;101260.16;4873383;29;20044;-82
2023/03/29 01:52:04;;;;;;;3.07;1.70;;;;;;;-1.70;100.00;101261.34;4885110;29;20408;-82
2023/03/29 01:54:34;;;;;;;2.43;1.70;;;;;;;-1.71;100.00;101254.41;4879202;29;20041;-82
2023/03/29 01:57:03;;;;;;;3.37;2.07;;;;;;;-1.79;100.00;101250.63;4851316;29;20049;-81
2023/03/29 01:59:33;;;;;;;4.17;2.40;;;;;;;-1.82;100.00;101244.47;4864796;29;20108;-80
2023/03/29 02:02:02;;;;;;;4.07;2.40;;;;;;;-1.82;100.00;101241.88;4871257;29;20056;-82
2023/03/29 02:04:35;;;;;;;4.23;2.37;;;;;;;-1.72;100.00;101231.91;4862742;29;20034;-81
2023/03/29 02:07:03;;;;;;;5.83;2.07;;;;;;;-1.74;100.00;101227.50;4863700;29;20112;-82
2023/03/29 02:09:30;;;;;;;3.03;1.87;;;;;;;-1.74;100.00;101228.38;4843502;29;20202;-81
2023/03/29 02:11:59;;;;;;;4.77;1.93;;;;;;;-1.77;100.00;101230.84;4862790;23;21094;-77
2023/03/29 02:14:26;;;;;;;3.30;2.30;;;;;;;-1.71;100.00;101230.19;4866370;29;20112;-78
2023/03/29 02:16:53;;;;;;;4.53;2.20;;;;;;;-1.71;100.00;101225.03;4882458;29;20419;-77
2023/03/29 02:19:21;;;;;;;3.70;2.00;;;;;;;-1.73;100.00;101226.69;4869681;29;20163;-78
2023/03/29 02:22:07;;;;;;;3.17;2.13;;;;;;;-1.70;100.00;101219.91;4874985;29;20041;-77
2023/03/29 02:24:35;;;;;;;5.57;2.60;;;;;;;-1.71;100.00;101215.53;4888598;29;20041;-78
2023/03/29 02:27:02;;;;;;;4.77;2.40;;;;;;;-1.71;100.00;101215.53;4885900;29;20045;-77
2023/03/29 02:29:29;;;;;;;5.27;2.63;;;;;;;-1.72;100.00;101218.97;4882098;29;20045;-78
2023/03/29 02:32:05;;;;;;;4.27;2.60;;;;;;;-1.72;100.00;101212.91;4866828;29;20037;-78
2023/03/29 02:34:37;;;;;;;3.63;2.47;;;;;;;-1.70;100.00;101212.13;4880045;29;20044;-78
2023/03/29 02:37:11;;;;;;;4.17;2.63;;;;;;;-1.68;100.00;101211.28;4874701;29;20074;-77
2023/03/29 02:39:38;;;;;;;4.50;2.42;;;;;;;-1.70;100.00;101213.81;4873893;29;20040;-78
2023/03/29 02:42:06;;;;;;;5.17;2.90;;;;;;;-1.62;100.00;101209.81;4871516;29;20929;-78
2023/03/29 02:44:36;;;;;;;7.03;2.97;;;;;;;-1.64;100.00;101203.72;4887865;29;20514;-78
2023/03/29 02:47:07;;;;;;;5.70;3.30;;;;;;;-1.57;100.00;101191.88;4869710;29;20056;-77
2023/03/29 02:49:33;;;;;;;10.33;3.80;;;;;;;-1.45;100.00;101187.13;4884946;29;20128;-78
2023/03/29 02:52:06;;;;;;;7.40;4.00;;;;;;;-1.50;100.00;101186.09;4851664;29;20045;-77
2023/03/29 02:54:33;;;;;;;5.33;3.70;;;;;;;-1.44;100.00;101186.28;4867247;29;20044;-77
2023/03/29 02:57:05;;;;;;;6.23;3.57;;;;;;;-1.49;100.00;101183.56;4867256;29;20045;-77
2023/03/29 02:59:32;;;;;;;10.63;3.33;;;;;;;-1.47;100.00;101176.72;4854491;29;20052;-77
2023/03/29 03:01:59;;;;;;;6.87;3.70;;;;;;;-1.37;100.00;101177.03;4887138;29;20718;-78
2023/03/29 03:04:26;;;;;;;6.17;3.47;;;;;;;-1.44;100.00;101170.75;4880371;29;20068;-78
2023/03/29 03:06:53;;;;;;;5.57;3.80;;;;;;;-1.44;100.00;101165.56;4885333;29;20549;-77
2023/03/29 03:09:20;;;;;;;4.30;3.03;;;;;;;-1.42;100.00;101161.34;4900981;29;20406;-78
2023/03/29 03:11:46;;;;;;;5.13;2.97;;;;;;;-1.40;100.00;101162.28;4880798;29;20085;-77
2023/03/29 03:14:13;;;;;;;4.57;2.80;;;;;;;-1.46;100.00;101149.97;4860715;29;20057;-78
2023/03/29 03:16:40;;;;;;;6.50;3.50;;;;;;;-1.37;100.00;101156.31;4876091;29;20419;-76
2023/03/29 03:19:06;;;;;;;5.73;3.57;;;;;;;-1.40;100.00;101151.03;4878016;29;20080;-77
2023/03/29 03:21:36;;;;;;;9.20;4.27;;;;;;;-1.36;100.00;101158.94;4878559;29;20048;-77
2023/03/29 03:24:04;;;;;;;6.60;3.30;;;;;;;-1.40;100.00;101154.50;4892992;29;20044;-77
2023/03/29 03:26:31;;;;;;;7.57;3.33;;;;;;;-1.31;100.00;101140.97;4883578;29;20041;-77
2023/03/29 03:28:58;;;;;;;6.97;3.67;;;;;;;-1.35;100.00;101145.16;4872781;29;20637;-77
2023/03/29 03:31:24;;;;;;;7.17;4.53;;;;;;;-1.43;100.00;101137.13;4879032;29;20530;-76
2023/03/29 03:33:52;;;;;;;6.23;3.60;;;;;;;-1.36;100.00;101133.03;4872263;29;20045;-78
2023/03/29 03:36:24;;;;;;;8.77;3.83;;;;;;;-1.35;100.00;101129.59;4879773;29;20065;-77
2023/03/29 03:38:52;;;;;;;8.47;3.77;;;;;;;-1.41;100.00;101129.41;4877950;29;20044;-78
2023/03/29 03:41:18;;;;;;;8.00;4.00;;;;;;;-1.44;100.00;101134.47;4888815;29;20490;-78
2023/03/29 03:43:47;;;;;;;5.53;3.43;;;;;;;-1.44;100.00;101129.28;4878662;29;20041;-77
2023/03/29 03:46:15;;;;;;;9.00;3.80;;;;;;;-1.44;100.00;101127.56;4880852;29;20036;-78
2023/03/29 03:48:43;;;;;;;7.43;4.07;;;;;;;-1.41;100.00;101126.81;4875695;29;20079;-77
2023/03/29 03:51:10;;;;;;;5.93;3.80;;;;;;;-1.45;100.00;101131.00;4894911;29;20037;-78
2023/03/29 03:53:37;;;;;;;6.70;3.50;;;;;;;-1.39;100.00;101121.69;4879382;29;20426;-77
2023/03/29 03:56:07;;;;;;;7.87;3.60;;;;;;;-1.38;100.00;101124.31;4873473;29;20041;-78
2023/03/29 03:58:35;;;;;;;9.33;4.20;;;;;;;-1.42;100.00;101119.88;4880084;29;20068;-78
2023/03/29 04:01:03;;;;;;;6.43;4.20;;;;;;;-1.39;100.00;101119.09;4873248;29;20044;-78
2023/03/29 04:03:30;;;;;;;7.13;3.60;;;;;;;-1.35;100.00;101115.75;4885944;29;20048;-77
2023/03/29 04:06:01;;;;;;;6.23;3.70;;;;;;;-1.38;100.00;101119.13;4887438;29;20037;-77
2023/03/29 04:08:28;;;;;;;8.70;3.63;;;;;;;-1.30;100.00;101114.22;4873018;29;20073;-76
2023/03/29 04:10:56;;;;;;;5.67;3.83;;;;;;;-1.27;100.00;101116.91;4855410;29;20037;-78
2023/03/29 04:13:23;;;;;;;6.63;3.60;;;;;;;-1.17;100.00;101119.00;4863160;29;20052;-77
2023/03/29 04:15:52;;;;;;;7.33;4.40;;;;;;;-1.14;100.00;101114.81;4878592;29;20053;-77
2023/03/29 04:18:20;;;;;;;7.53;3.37;;;;;;;-1.18;100.00;101110.34;4890934;29;20470;-77
2023/03/29 04:20:47;;;;;;;5.83;3.40;;;;;;;-1.20;100.00;101113.72;4880357;29;20506;-77
2023/03/29 04:23:14;;;;;;;5.43;3.10;;;;;;;-1.22;100.00;101118.84;4879262;29;20052;-77
2023/03/29 04:25:44;;;;;;;6.90;3.87;;;;;;;-1.24;100.00;101112.72;4870786;29;20055;-78
2023/03/29 04:28:11;;;;;;;5.77;4.37;;;;;;;-1.22;100.00;101107.59;4894518;29;20463;-78
2023/03/29 04:30:38;;;;;;;8.13;3.77;;;;;;;-1.21;100.00;101112.81;4880070;29;20124;-78
2023/03/29 04:33:05;;;;;;;4.97;3.03;;;;;;;-1.19;100.00;101103.38;4882071;29;20044;-77
2023/03/29 04:35:32;;;;;;;5.03;3.20;;;;;;;-1.14;100.00;101098.38;4893376;29;20037;-78
2023/03/29 04:37:59;;;;;;;6.67;3.50;;;;;;;-1.03;100.00;101096.13;4873970;29;20545;-78
2023/03/29 04:40:26;;;;;;;5.97;3.93;;;;;;;-1.05;100.00;101097.78;4853048;29;20917;-77
2023/03/29 04:42:53;;;;;;;6.57;3.57;;;;;;;-1.07;100.00;101100.34;4896333;29;20048;-77
2023/03/29 04:45:20;;;;;;;8.67;4.07;;;;;;;-0.97;100.00;101093.75;4857251;29;20056;-77
2023/03/29 04:47:47;;;;;;;8.10;4.50;;;;;;;-0.94;100.00;101094.72;4871343;29;20041;-77
2023/03/29 04:50:14;;;;;;;8.13;4.10;;;;;;;-0.98;100.00;101105.81;4863821;29;20466;-77
2023/03/29 04:52:41;;;;;;;7.13;4.10;;;;;;;-0.84;100.00;101090.72;4871810;29;20044;-77
2023/03/29 04:55:08;;;;;;;14.93;6.40;;;;;;;-0.88;100.00;101092.31;4880375;29;20463;-77
2023/03/29 04:57:34;;;;;;;10.33;3.60;;;;;;;-0.91;100.00;101091.34;4897344;29;20062;-77
2023/03/29 05:00:07;;;;;;;6.20;3.53;;;;;;;-0.81;100.00;101087.34;4867530;29;20049;-77
2023/03/29 05:02:33;;;;;;;7.13;4.13;;;;;;;-0.79;100.00;101089.16;4863553;29;20052;-77
2023/03/29 05:05:00;;;;;;;8.97;4.27;;;;;;;-0.65;100.00;101087.88;4863795;29;20491;-78
2023/03/29 05:07:27;;;;;;;8.57;4.33;;;;;;;-0.60;100.00;101078.50;4848565;29;20088;-78
2023/03/29 05:09:53;;;;;;;7.83;3.93;;;;;;;-0.52;100.00;101070.09;4866289;29;20063;-78
2023/03/29 05:12:20;;;;;;;6.20;3.90;;;;;;;-0.56;100.00;101076.91;4885575;29;20064;-78
2023/03/29 05:14:46;;;;;;;7.80;4.03;;;;;;;-0.54;100.00;101082.16;4875474;29;20109;-78
2023/03/29 05:17:13;;;;;;;5.23;3.87;;;;;;;-0.53;100.00;101081.31;4873740;29;20064;-78
2023/03/29 05:19:40;;;;;;;6.77;4.20;;;;;;;-0.43;100.00;101078.16;4869213;29;20052;-78
2023/03/29 05:22:07;;;;;;;10.80;3.70;;;;;;;-0.36;100.00;101073.19;4884540;29;20128;-78
2023/03/29 05:24:34;;;;;;;12.67;3.80;;;;;;;-0.22;100.00;101071.03;4883948;29;20093;-78
2023/03/29 05:27:01;;;;;;;7.70;3.93;;;;;;;-0.16;100.00;101072.94;4880744;29;20044;-78
2023/03/29 05:29:28;;;;;;;5.67;4.00;;;;;;;-0.08;100.00;101069.72;4887470;29;20399;-78
2023/03/29 05:31:55;;;;;;;7.57;3.77;;;;;;;0.01;100.00;101058.72;4887192;29;20051;-78
2023/03/29 05:34:21;;;;;;;8.23;3.90;;;;;;;0.01;100.00;101063.91;4881932;29;20577;-78
2023/03/29 05:36:48;;;;;;;6.97;3.50;;;;;;;0.04;100.00;101060.50;4881261;29;20047;-77
2023/03/29 05:39:15;;;;;;;8.63;4.03;;;;;;;0.19;100.00;101061.81;4881453;29;20071;-78
2023/03/29 05:41:41;;;;;;;4.93;3.30;;;;;;;0.25;100.00;101058.50;4883036;29;20040;-77
2023/03/29 05:44:08;;;;;;;5.60;3.80;;;;;;;0.30;100.00;101061.25;4865108;29;20045;-78
2023/03/29 05:46:35;;;;;;;7.67;4.20;;;;;;;0.41;100.00;101052.00;4880216;29;20041;-77
2023/03/29 05:49:02;;;;;;;7.10;3.97;;;;;;;0.44;100.00;101042.59;4890991;29;20049;-77
2023/03/29 05:51:28;;;;;;;7.07;3.90;;;;;;;0.55;100.00;101046.34;4862915;29;20037;-78
2023/03/29 05:53:55;;;;;;;5.23;3.20;;;;;;;0.65;100.00;101042.25;4875304;29;20538;-77
2023/03/29 05:56:22;;;;;;;7.47;3.97;;;;;;;0.70;100.00;101047.59;4875844;29;20049;-77
2023/03/29 05:58:49;;;;;;;8.57;4.17;;;;;;;0.75;100.00;101041.63;4845077;29;20056;-77
2023/03/29 06:01:17;;;;;;;6.87;3.50;;;;;;;0.78;100.00;101051.25;4856146;29;20104;-77
2023/03/29 06:03:47;;;;;;;6.27;4.10;;;;;;;0.80;100.00;101045.25;4863901;29;20041;-77
2023/03/29 06:06:15;;;;;;;5.97;3.80;;;;;;;0.89;100.00;101044.59;4880146;29;20064;-77
2023/03/29 06:08:42;;;;;;;6.10;3.57;;;;;;;0.97;100.00;101044.78;4876405;29;20037;-77
2023/03/29 06:11:12;;;;;;;5.70;3.47;;;;;;;1.07;100.00;101044.16;4847592;29;20045;-77
2023/03/29 06:13:40;;;;;;;7.50;3.47;;;;;;;1.21;100.00;101044.50;4886730;29;20410;-77
2023/03/29 06:16:09;;;;;;;5.93;3.23;;;;;;;1.25;100.00;101047.19;4872952;29;20041;-77
2023/03/29 06:18:38;;;;;;;4.17;2.90;;;;;;;1.33;100.00;101050.84;4883114;29;20041;-77
2023/03/29 06:21:08;;;;;;;5.87;3.40;;;;;;;1.50;100.00;101050.34;4874473;29;20049;-77
2023/03/29 06:23:35;;;;;;;8.50;3.63;;;;;;;1.53;100.00;101040.91;4880483;29;20037;-77
2023/03/29 06:26:02;;;;;;;5.30;3.30;;;;;;;1.64;100.00;101044.63;4889351;29;20513;-77
2023/03/29 06:28:29;;;;;;;6.60;3.00;;;;;;;1.63;100.00;101042.88;4844407;29;20105;-77
2023/03/29 06:31:00;;;;;;;11.03;4.77;;;;;;;1.68;100.00;101046.47;4859596;29;20507;-77
2023/03/29 06:33:31;;;;;;;5.17;3.23;;;;;;;1.87;99.56;101037.31;4860940;29;20049;-77
2023/03/29 06:35:57;;;;;;;5.83;3.97;;;;;;;2.06;98.79;101046.38;4878267;29;20055;-79
2023/03/29 06:38:27;;;;;;;5.33;3.37;;;;;;;2.00;97.60;101046.22;4878224;29;20040;-78
2023/03/29 06:41:04;;;;;;;5.53;3.80;;;;;;;2.03;98.27;101045.44;4854293;29;20051;-77
2023/03/29 06:43:31;;;;;;;9.30;4.10;;;;;;;2.15;96.92;101046.56;4879880;29;20519;-78
2023/03/29 06:45:59;;;;;;;7.63;3.20;;;;;;;2.25;97.97;101042.38;4875950;29;20033;-78
2023/03/29 06:48:26;;;;;;;4.87;3.00;;;;;;;2.26;98.64;101031.97;4863433;29;20135;-77
2023/03/29 06:50:53;;;;;;;6.07;3.67;;;;;;;2.36;98.54;101037.41;4883442;29;20037;-78
2023/03/29 06:53:20;;;;;;;5.60;3.67;;;;;;;2.45;97.56;101022.81;4885857;29;20045;-77
2023/03/29 06:55:50;;;;;;;7.00;3.20;;;;;;;2.57;97.07;101024.75;4876876;29;20827;-77
2023/03/29 06:58:17;;;;;;;8.10;3.20;;;;;;;2.69;93.67;101024.97;4863045;29;20049;-77
2023/03/29 07:00:44;;;;;;;5.07;3.40;;;;;;;2.72;93.69;101026.75;4874612;29;20041;-77
2023/03/29 07:03:18;;;;;;;5.30;3.20;;;;;;;2.85;92.62;101022.59;4861622;29;20045;-77
2023/03/29 07:05:46;;;;;;;4.97;3.00;;;;;;;2.91;90.76;101015.75;4864312;29;20045;-78
2023/03/29 07:08:15;;;;;;;6.23;3.23;;;;;;;2.98;91.75;101020.22;4873998;29;20045;-77
2023/03/29 07:10:46;;;;;;;4.70;3.00;;;;;;;3.08;91.90;101013.41;4870721;29;20106;-76
2023/03/29 07:13:13;;;;;;;7.43;3.13;;;;;;;3.24;89.23;101019.75;4862122;29;20049;-77
2023/03/29 07:15:40;;;;;;;6.53;3.93;;;;;;;3.29;87.17;101016.38;4863406;29;20044;-77
2023/03/29 07:18:08;;;;;;;5.83;3.83;;;;;;;3.41;86.80;101026.09;4881023;29;20064;-78
2023/03/29 07:20:37;;;;;;;6.97;3.30;;;;;;;3.49;89.07;101018.38;4872575;29;20124;-77
2023/03/29 07:23:05;;;;;;;7.70;3.97;;;;;;;3.61;86.67;101014.19;4869886;29;20041;-78
2023/03/29 07:25:32;;;;;;;9.53;4.27;;;;;;;3.70;88.33;101008.22;4878147;29;20502;-77
2023/03/29 07:27:59;;;;;;;6.30;3.20;;;;;;;3.70;85.71;101010.84;4874711;29;20049;-78
2023/03/29 07:30:28;;;;;;;5.03;3.30;;;;;;;3.78;86.76;101014.41;4876311;29;20059;-77
2023/03/29 07:32:58;;;;;;;7.03;3.77;;;;;;;3.93;85.49;101009.38;4885735;29;20044;-77
2023/03/29 07:35:25;;;;;;;7.27;3.10;;;;;;;4.00;82.59;101006.84;4878507;29;20045;-77
2023/03/29 07:37:54;;;;;;;6.80;3.60;;;;;;;4.11;84.21;101006.09;4852939;29;20044;-77
2023/03/29 07:40:24;;;;;;;7.60;4.47;;;;;;;4.13;84.11;101006.13;4862553;29;20049;-77
2023/03/29 07:42:54;;;;;;;5.87;3.53;;;;;;;4.17;83.92;101006.16;4876040;29;20040;-77
2023/03/29 07:45:22;;;;;;;6.13;4.00;;;;;;;4.19;84.05;100998.34;4879599;29;20053;-77
2023/03/29 07:47:56;;;;;;;4.67;3.43;;;;;;;4.33;82.45;101003.72;4864212;29;20470;-77
2023/03/29 07:50:23;;;;;;;7.23;3.83;;;;;;;4.37;81.20;101000.25;4896576;29;20048;-77
2023/03/29 07:52:50;;;;;;;7.00;3.20;;;;;;;4.34;80.71;100988.03;4880223;29;20040;-77
2023/03/29 07:55:16;;;;;;;8.20;3.47;;;;;;;4.51;81.76;100990.81;4895702;29;20041;-76
2023/03/29 07:57:43;;;;;;;6.57;3.77;;;;;;;4.58;82.31;100990.00;4878074;29;20114;-77
2023/03/29 08:00:14;;;;;;;7.70;3.73;;;;;;;4.69;82.93;100993.59;4873541;29;20049;-77
2023/03/29 08:02:43;;;;;;;6.33;3.73;;;;;;;4.86;80.84;100988.50;4877264;29;20047;-76
2023/03/29 08:05:11;;;;;;;7.40;3.33;;;;;;;4.97;79.68;100991.22;4862652;29;20414;-77
2023/03/29 08:07:40;;;;;;;7.27;3.30;;;;;;;5.08;77.15;100992.16;4877111;29;20048;-75
2023/03/29 08:10:12;;;;;;;6.07;3.40;;;;;;;5.09;75.23;100989.56;4877028;29;20093;-76
2023/03/29 08:12:39;;;;;;;11.63;3.70;;;;;;;5.15;78.02;100995.72;4860746;29;20080;-77
2023/03/29 08:15:07;;;;;;;6.63;3.60;;;;;;;5.24;76.65;100998.41;4895771;29;20041;-77
2023/03/29 08:17:35;;;;;;;6.63;3.50;;;;;;;5.27;78.57;100999.28;4876832;29;20041;-77
2023/03/29 08:20:02;;;;;;;7.67;3.83;;;;;;;5.33;78.82;100995.84;4846491;29;20502;-77
2023/03/29 08:22:31;;;;;;;7.60;3.87;;;;;;;5.42;77.60;100988.03;4876508;29;20049;-76
2023/03/29 08:24:57;;;;;;;6.40;3.20;;;;;;;5.53;77.98;100985.47;4876792;29;20041;-77
2023/03/29 08:27:24;;;;;;;7.90;3.20;;;;;;;5.68;76.02;100993.41;4893773;29;20041;-77
2023/03/29 08:29:51;;;;;;;4.63;2.83;;;;;;;5.83;72.83;100983.00;4880095;29;20143;-76
2023/03/29 08:32:18;;;;;;;4.60;2.93;;;;;;;5.89;72.31;100987.38;4880235;29;20384;-77
2023/03/29 08:34:45;;;;;;;5.47;3.47;;;;;;;6.09;72.79;100988.34;4860898;29;20060;-77
2023/03/29 08:37:13;;;;;;;5.53;3.30;;;;;;;6.31;71.56;100991.06;4949310;23;20085;-78
2023/03/29 08:39:40;;;;;;;5.40;3.33;;;;;;;6.45;70.02;100977.06;4874312;29;20048;-78
2023/03/29 08:42:16;;;;;;;7.70;4.40;;;;;;;6.70;69.72;100975.31;4876016;29;20041;-79
2023/03/29 08:44:55;;;;;;;5.83;3.13;;;;;;;6.84;66.48;100983.22;4897224;29;20044;-79
2023/03/29 08:47:58;;;;;;;5.40;3.17;;;;;;;7.05;69.01;100971.81;4890022;29;20047;-77
2023/03/29 08:50:32;;;;;;;5.17;3.20;;;;;;;7.24;66.61;100968.31;4869670;29;20053;-79
2023/03/29 08:53:05;;;;;;;4.78;3.63;;;;;;;7.37;65.92;100977.03;4869099;29;20045;-78
2023/03/29 08:55:36;;;;;;;8.83;3.40;;;;;;;7.48;63.38;100971.72;4873564;29;20044;-79
2023/03/29 08:58:06;;;;;;;6.57;3.30;;;;;;;7.48;63.05;100969.09;4870240;29;20072;-79
2023/03/29 09:00:43;;;;;;;5.30;3.00;;;;;;;7.56;64.80;100967.31;4867141;29;20045;-80
2023/03/29 09:03:24;;;;;;;5.47;3.07;;;;;;;7.75;64.06;100961.13;4850907;29;20056;-79
2023/03/29 09:06:02;;;;;;;7.13;3.40;;;;;;;7.98;64.16;100946.97;4880889;29;20049;-79
2023/03/29 09:08:29;;;;;;;14.47;9.80;;;;;;;8.17;64.04;100948.66;4886170;29;20049;-80
2023/03/29 09:11:23;;;;;;;27.63;14.90;;;;;;;8.38;60.10;100952.91;4864539;29;20041;-79
2023/03/29 09:14:16;;;;;;;6.47;3.97;;;;;;;8.50;61.28;100958.13;4865003;29;20056;-79
2023/03/29 09:17:01;;;;;;;7.20;3.70;;;;;;;8.80;61.85;100950.84;4880662;29;20073;-80
2023/03/29 09:19:53;;;;;;;9.70;4.77;;;;;;;8.83;57.80;100935.00;4885679;29;20119;-79
2023/03/29 09:22:43;;;;;;;7.37;3.70;;;;;;;9.03;58.38;100933.06;4884361;29;20052;-80
2023/03/29 09:25:35;;;;;;;5.13;3.93;;;;;;;9.22;58.09;100931.97;4883670;29;20052;-79
2023/03/29 09:28:26;;;;;;;5.33;2.87;;;;;;;9.21;57.68;100930.25;4895125;29;20052;-80
2023/03/29 09:31:06;;;;;;;16.57;8.63;;;;;;;9.23;56.81;100933.72;4884939;29;20295;-78
2023/03/29 09:33:43;;;;;;;12.73;5.00;;;;;;;9.28;58.63;100928.41;4863053;29;20494;-80
2023/03/29 09:36:16;;;;;;;6.57;3.10;;;;;;;9.36;58.14;100923.94;4861467;29;20426;-79
2023/03/29 09:38:46;;;;;;;8.73;3.50;;;;;;;9.24;55.70;100917.00;4877199;29;20491;-79
2023/03/29 09:41:20;;;;;;;9.10;4.00;;;;;;;9.52;58.09;100928.13;4868917;29;20040;-80
2023/03/29 09:43:48;;;;;;;5.20;3.20;;;;;;;9.65;55.92;100914.78;4863087;29;20500;-80
2023/03/29 09:46:22;;;;;;;6.87;3.30;;;;;;;9.74;56.20;100914.66;4859006;29;20048;-81
2023/03/29 09:48:49;;;;;;;4.85;3.20;;;;;;;9.76;56.48;100907.63;4874938;29;20582;-80
2023/03/29 09:51:18;;;;;;;6.75;3.88;;;;;;;9.81;55.51;100904.00;4890997;29;20499;-80
2023/03/29 09:53:48;;;;;;;7.33;3.70;;;;;;;9.73;54.11;100908.53;4865982;29;20045;-80
2023/03/29 09:56:15;;;;;;;4.50;2.90;;;;;;;9.79;55.82;100897.88;4875289;29;20052;-80
2023/03/29 09:58:42;;;;;;;4.38;3.20;;;;;;;9.91;55.84;100894.19;4860274;29;20045;-80
2023/03/29 10:01:13;;;;;;;5.38;3.80;;;;;;;9.92;53.19;100895.97;4874847;29;20440;-80
2023/03/29 10:03:41;;;;;;;5.53;3.03;;;;;;;9.86;52.95;100885.50;4889793;29;20044;-80
2023/03/29 10:06:10;;;;;;;5.63;3.58;;;;;;;9.71;53.87;100889.22;4871875;29;20044;-80
2023/03/29 10:08:42;;;;;;;8.50;3.55;;;;;;;9.66;55.97;100895.44;4893779;29;20394;-78
2023/03/29 10:11:19;;;;;;;6.80;3.60;;;;;;;9.79;54.70;100883.81;4884716;29;20045;-81
2023/03/29 10:13:48;;;;;;;7.88;3.90;;;;;;;9.95;57.01;100890.63;4877279;29;20045;-81
2023/03/29 10:16:29;;;;;;;5.75;2.92;;;;;;;10.32;54.86;100877.78;4860366;29;20415;-80
2023/03/29 10:18:55;;;;;;;5.90;3.33;;;;;;;10.58;54.25;100882.63;4876564;29;20140;-80
2023/03/29 10:21:23;;;;;;;4.10;3.20;;;;;;;10.92;52.31;100867.03;4877906;29;20539;-81
2023/03/29 10:23:57;;;;;;;5.85;2.97;;;;;;;11.04;50.74;100859.81;4865378;29;20047;-80
2023/03/29 10:26:28;;;;;;;6.35;3.22;;;;;;;10.79;49.71;100867.31;4881690;29;20096;-81
2023/03/29 10:28:56;;;;;;;6.53;4.30;;;;;;;11.00;52.45;100859.84;4861838;29;20052;-81
2023/03/29 10:31:23;;;;;;;12.90;8.00;;;;;;;10.88;51.95;100861.88;4861469;29;20148;-79
2023/03/29 10:33:52;;;;;;;5.85;4.22;;;;;;;10.74;52.81;100855.94;4874401;29;20499;-78
2023/03/29 10:36:20;;;;;;;6.97;3.10;;;;;;;10.56;53.46;100847.44;4885612;29;20187;-80
2023/03/29 10:38:47;;;;;;;7.78;3.17;;;;;;;10.43;51.96;100852.09;4879549;29;20048;-79
2023/03/29 10:41:20;;;;;;;5.10;2.50;;;;;;;10.58;52.71;100850.06;4878984;29;20139;-82
2023/03/29 10:43:49;;;;;;;4.78;2.58;;;;;;;10.70;55.61;100844.56;4884389;29;20045;-81
2023/03/29 10:46:22;;;;;;;3.90;2.60;;;;;;;10.77;53.67;100845.34;4884358;29;20037;-80
2023/03/29 10:49:04;;;;;;;4.32;2.90;;;;;;;10.86;52.50;100840.75;4881717;29;20076;-80
2023/03/29 10:51:31;;;;;;;3.78;2.65;;;;;;;10.87;52.98;100838.97;4888555;29;20037;-81
2023/03/29 10:53:58;;;;;;;5.15;2.78;;;;;;;10.92;52.43;100839.75;4874647;29;20045;-80
2023/03/29 10:56:31;;;;;;;3.88;2.33;;;;;;;10.81;51.10;100837.31;4907584;29;20048;-80
2023/03/29 10:59:13;;;;;;;5.57;2.75;;;;;;;10.71;53.06;100833.09;4889700;29;20056;-79
2023/03/29 11:01:57;;;;;;;6.68;2.80;;;;;;;10.70;54.40;100839.28;4907641;29;20052;-80
2023/03/29 11:04:37;;;;;;;6.82;5.60;;;;;;;10.71;53.69;100833.09;4887402;29;20127;-81
2023/03/29 11:07:25;;;;;;;5.70;2.90;;;;;;;11.14;55.01;100825.22;4885627;29;20059;-80
2023/03/29 11:10:03;;;;;;;5.30;2.38;;;;;;;11.37;52.12;100821.22;4874785;29;20044;-82
2023/03/29 11:12:42;;;;;;;4.32;2.50;;;;;;;11.47;52.70;100828.06;4876032;29;20060;-80
2023/03/29 11:15:17;;;;;;;5.93;5.32;;;;;;;11.49;51.94;100821.81;4868127;29;20048;-80
2023/03/29 11:17:53;;;;;;;5.53;2.80;;;;;;;11.40;51.50;100827.31;4889165;29;20053;-79
2023/03/29 11:20:31;;;;;;;3.67;2.70;;;;;;;11.49;51.39;100831.53;4873395;29;20105;-80
2023/03/29 11:23:12;;;;;;;5.18;2.80;;;;;;;11.41;51.05;100823.75;4865349;29;20048;-80
2023/03/29 11:25:52;;;;;;;4.72;2.40;;;;;;;11.30;51.66;100835.47;4882931;29;20048;-80
2023/03/29 11:28:41;;;;;;;3.53;3.05;;;;;;;11.05;52.88;100833.34;4865669;29;20471;-80
2023/03/29 11:31:26;;;;;;;4.43;3.35;;;;;;;10.92;53.69;100832.69;4877136;29;20079;-80
2023/03/29 11:34:21;;;;;;;19.45;14.10;;;;;;;10.68;53.96;100825.25;4902030;29;20482;-80
2023/03/29 11:37:12;;;;;;;7.03;4.30;;;;;;;10.74;55.36;100811.88;4877672;29;20049;-80
2023/03/29 11:39:52;;;;;;;2.72;2.10;;;;;;;10.76;54.44;100799.50;4904877;29;20048;-80